Time;durP1;ratioP1;P1;durP2;ratioP2;P2;SDS_P1;SDS_P2;PMS_P1;PMS_P2;Temp;Humidity;BMP_temperature;BMP_pressure;BME280_temperature;BME280_humidity;BME280_pressure;Samples;Min_cycle;Max_cycle;Signal;HPM_P1;HPM_P2
2023/09/17 00:01:50;;;;;;;;;;;;;;;20.07;66.51;101028.72;4172171;28;20028;-65
2023/09/17 00:03:52;;;;;;;;;;;;;;;20.05;66.60;101028.94;4172156;28;20012;-65
2023/09/17 00:05:56;;;;;;;;;;;;;;;20.04;66.55;101030.00;4172455;28;20028;-66
2023/09/17 00:07:58;;;;;;;;;;;;;;;20.04;66.61;101037.41;4171731;28;20040;-65
2023/09/17 00:10:00;;;;;;;;;;;;;;;20.04;66.47;101029.19;4171770;28;20395;-64
2023/09/17 00:12:02;;;;;;;;;;;;;;;20.03;66.69;101031.09;4171905;28;20369;-65
2023/09/17 00:14:04;;;;;;;;;;;;;;;20.01;66.41;101029.63;4171978;28;20359;-65
2023/09/17 00:16:05;;;;;;;;;;;;;;;20.01;66.82;101029.63;4171679;28;20024;-65
2023/09/17 00:18:07;;;;;;;;;;;;;;;19.98;66.36;101030.94;4172598;28;20031;-65
2023/09/17 00:20:11;;;;;;;;;;;;;;;19.94;66.75;101025.09;4171960;28;20044;-65
2023/09/17 00:22:14;;;;;;;;;;;;;;;19.93;66.88;101033.53;4172035;28;20357;-65
2023/09/17 00:24:16;;;;;;;;;;;;;;;19.92;66.77;101026.38;4172544;28;20025;-65
2023/09/17 00:26:18;;;;;;;;;;;;;;;19.91;66.96;101031.03;4172126;28;20007;-65
2023/09/17 00:28:21;;;;;;;;;;;;;;;19.91;66.99;101033.78;4170797;28;20356;-66
2023/09/17 00:30:23;;;;;;;;;;;;;;;19.89;66.71;101033.19;4172060;28;20016;-66
2023/09/17 00:32:25;;;;;;;;;;;;;;;19.88;66.84;101025.19;4169138;28;20477;-66
2023/09/17 00:34:27;;;;;;;;;;;;;;;19.85;66.94;101033.88;4172182;28;20368;-64
2023/09/17 00:36:29;;;;;;;;;;;;;;;19.84;67.12;101032.19;4172062;28;20035;-64
2023/09/17 00:38:32;;;;;;;;;;;;;;;19.83;66.87;101025.03;4186738;28;20054;-65
2023/09/17 00:40:37;;;;;;;;;;;;;;;19.79;67.01;101025.47;4171581;28;20029;-66
2023/09/17 00:42:39;;;;;;;;;;;;;;;19.79;67.17;101030.13;4170800;28;20024;-65
2023/09/17 00:44:41;;;;;;;;;;;;;;;19.77;67.08;101029.53;4177825;28;20011;-66
2023/09/17 00:46:44;;;;;;;;;;;;;;;19.73;67.23;101026.41;4170554;28;20017;-65
2023/09/17 00:48:46;;;;;;;;;;;;;;;19.72;67.17;101026.63;4186704;28;20020;-65
2023/09/17 00:50:48;;;;;;;;;;;;;;;19.70;67.09;101024.13;4170937;28;20012;-66
2023/09/17 00:52:49;;;;;;;;;;;;;;;19.66;67.53;101030.31;4172032;28;20031;-65
2023/09/17 00:54:52;;;;;;;;;;;;;;;19.64;67.52;101027.78;4171366;28;20036;-64
2023/09/17 00:56:54;;;;;;;;;;;;;;;19.62;67.31;101024.41;4186546;28;20376;-66
2023/09/17 00:58:55;;;;;;;;;;;;;;;19.63;67.19;101026.09;4186061;28;20039;-66
2023/09/17 01:00:58;;;;;;;;;;;;;;;19.60;67.36;101024.66;4176209;28;19932;-66
2023/09/17 01:03:03;;;;;;;;;;;;;;;19.58;67.22;101024.06;4170424;28;20019;-66
2023/09/17 01:05:05;;;;;;;;;;;;;;;19.58;67.19;101023.22;4170044;28;20043;-65
2023/09/17 01:07:06;;;;;;;;;;;;;;;19.56;67.20;101026.19;4170274;28;20058;-65
2023/09/17 01:09:08;;;;;;;;;;;;;;;19.55;67.12;101023.69;4171352;28;20024;-66
2023/09/17 01:11:12;;;;;;;;;;;;;;;19.52;67.31;101015.94;4170361;28;20048;-66
2023/09/17 01:13:14;;;;;;;;;;;;;;;19.51;67.44;101028.75;4171665;28;20020;-65
2023/09/17 01:15:17;;;;;;;;;;;;;;;19.49;67.41;101027.34;4171751;28;19978;-65
2023/09/17 01:17:19;;;;;;;;;;;;;;;19.47;67.32;101018.50;4187065;28;20018;-66
2023/09/17 01:19:22;;;;;;;;;;;;;;;19.44;67.33;101022.56;4185703;28;20012;-65
2023/09/17 01:21:25;;;;;;;;;;;;;;;19.44;67.33;101023.38;4171293;28;20108;-65
2023/09/17 01:23:29;;;;;;;;;;;;;;;19.41;67.42;101020.28;4186520;28;20375;-63
2023/09/17 01:25:40;;;;;;;;;;;;;;;19.37;67.18;101022.63;4171215;28;20019;-65
2023/09/17 01:27:45;;;;;;;;;;;;;;;19.37;67.54;101024.53;4172096;28;20339;-65
2023/09/17 01:29:46;;;;;;;;;;;;;;;19.35;67.43;101024.75;4170844;28;20019;-67
2023/09/17 01:31:48;;;;;;;;;;;;;;;19.34;67.42;101027.72;4175826;28;20023;-66
2023/09/17 01:33:51;;;;;;;;;;;;;;;19.33;67.38;101026.06;4171381;28;20015;-66
2023/09/17 01:35:55;;;;;;;;;;;;;;;19.31;67.59;101020.81;4171164;28;19929;-66
2023/09/17 01:37:59;;;;;;;;;;;;;;;19.29;67.50;101028.41;4171228;28;20446;-66
2023/09/17 01:40:05;;;;;;;;;;;;;;;19.26;67.72;101029.72;4176937;28;20012;-66
2023/09/17 01:42:07;;;;;;;;;;;;;;;19.24;67.75;101025.50;4170446;28;20450;-65
2023/09/17 01:44:09;;;;;;;;;;;;;;;19.19;68.02;101026.19;4171098;28;20013;-64
2023/09/17 01:46:12;;;;;;;;;;;;;;;19.17;68.08;101024.75;4167355;28;20020;-65
2023/09/17 01:48:14;;;;;;;;;;;;;;;19.14;68.32;101030.66;4171433;28;20023;-65
2023/09/17 01:50:16;;;;;;;;;;;;;;;19.14;68.29;101027.94;4169313;28;20044;-66
2023/09/17 01:52:24;;;;;;;;;;;;;;;19.12;68.49;101022.69;4168418;28;20023;-65
2023/09/17 01:54:25;;;;;;;;;;;;;;;19.09;68.28;101025.91;4171649;28;20023;-64
2023/09/17 01:56:28;;;;;;;;;;;;;;;19.05;68.65;101027.41;4184967;28;20414;-65
2023/09/17 01:58:30;;;;;;;;;;;;;;;19.03;68.56;101024.06;4185847;28;20019;-65
2023/09/17 02:00:34;;;;;;;;;;;;;;;19.02;68.34;101025.13;4166984;28;20040;-64
2023/09/17 02:02:36;;;;;;;;;;;;;;;19.01;68.44;101027.03;4170590;28;20016;-66
2023/09/17 02:04:38;;;;;;;;;;;;;;;19.00;68.51;101022.59;4185634;28;20036;-66
2023/09/17 02:06:40;;;;;;;;;;;;;;;18.99;68.51;101020.94;4168619;28;20027;-65
2023/09/17 02:08:42;;;;;;;;;;;;;;;19.01;68.21;101029.78;4170675;28;20052;-66
2023/09/17 02:10:45;;;;;;;;;;;;;;;19.00;68.09;101022.59;4170595;28;20015;-64
2023/09/17 02:12:47;;;;;;;;;;;;;;;19.01;68.23;101034.38;4169257;28;20407;-64
2023/09/17 02:14:49;;;;;;;;;;;;;;;19.01;68.17;101042.59;4170903;28;20024;-63
2023/09/17 02:16:54;;;;;;;;;;;;;;;18.99;68.06;101037.34;4170156;28;19937;-65
2023/09/17 02:18:56;;;;;;;;;;;;;;;18.97;68.06;101034.00;4177324;28;20588;-65
2023/09/17 02:20:57;;;;;;;;;;;;;;;18.97;68.22;101035.91;4170369;28;20031;-66
2023/09/17 02:22:59;;;;;;;;;;;;;;;18.95;67.86;101046.22;4171549;28;20556;-65
2023/09/17 02:25:01;;;;;;;;;;;;;;;18.90;67.81;101044.16;4180122;28;20015;-66
2023/09/17 02:27:03;;;;;;;;;;;;;;;18.88;68.18;101036.19;4174258;28;20131;-66
2023/09/17 02:29:06;;;;;;;;;;;;;;;18.87;68.19;101034.53;4180213;28;20016;-66
2023/09/17 02:31:09;;;;;;;;;;;;;;;18.86;68.01;101032.84;4172987;28;20015;-66
2023/09/17 02:33:12;;;;;;;;;;;;;;;18.84;67.83;101034.97;4174022;28;20012;-65
2023/09/17 02:35:14;;;;;;;;;;;;;;;18.84;68.06;101031.34;4173795;28;20051;-65
2023/09/17 02:37:15;;;;;;;;;;;;;;;18.83;68.56;101032.44;4172855;28;19956;-66
2023/09/17 02:39:17;;;;;;;;;;;;;;;18.80;68.46;101032.88;4173123;28;19929;-66
2023/09/17 02:41:20;;;;;;;;;;;;;;;18.73;68.75;101033.78;4172747;28;20015;-65
2023/09/17 02:43:22;;;;;;;;;;;;;;;18.70;68.93;101027.94;4172612;28;20049;-66
2023/09/17 02:45:24;;;;;;;;;;;;;;;18.68;68.50;101036.34;4173550;28;20035;-63
2023/09/17 02:47:26;;;;;;;;;;;;;;;18.67;68.31;101025.63;4179767;28;20056;-66
2023/09/17 02:49:30;;;;;;;;;;;;;;;18.65;68.52;101031.34;4173093;28;20024;-65
2023/09/17 02:51:32;;;;;;;;;;;;;;;18.64;68.55;101037.84;4173235;28;20020;-68
2023/09/17 02:53:34;;;;;;;;;;;;;;;18.64;68.40;101032.38;4188342;28;20007;-65
2023/09/17 02:55:36;;;;;;;;;;;;;;;18.64;68.40;101029.66;4173312;28;20028;-66
2023/09/17 02:57:38;;;;;;;;;;;;;;;18.62;68.44;101037.25;4173576;28;20008;-66
2023/09/17 02:59:41;;;;;;;;;;;;;;;18.59;68.68;101031.38;4178552;28;20510;-65
2023/09/17 03:01:43;;;;;;;;;;;;;;;18.55;68.84;101022.78;4187616;28;20012;-65
2023/09/17 03:03:44;;;;;;;;;;;;;;;18.55;69.05;101020.03;4173204;28;20020;-66
2023/09/17 03:05:48;;;;;;;;;;;;;;;18.54;69.22;101023.81;4171744;28;20020;-67
2023/09/17 03:07:50;;;;;;;;;;;;;;;18.54;69.06;101032.03;4179072;28;20019;-67
2023/09/17 03:09:51;;;;;;;;;;;;;;;18.54;68.77;101021.09;4178985;28;20091;-67
2023/09/17 03:11:53;;;;;;;;;;;;;;;18.53;68.51;101022.19;4186923;28;20015;-65
2023/09/17 03:13:55;;;;;;;;;;;;;;;18.53;68.61;101022.19;4178815;28;19952;-64
2023/09/17 03:15:57;;;;;;;;;;;;;;;18.51;68.66;101024.28;4179463;28;20052;-65
2023/09/17 03:18:00;;;;;;;;;;;;;;;18.49;68.69;101031.88;4172201;28;19925;-66
2023/09/17 03:20:13;;;;;;;;;;;;;;;18.45;68.88;101025.16;4178867;28;20022;-65
2023/09/17 03:22:16;;;;;;;;;;;;;;;18.40;69.03;101022.28;4170864;28;20031;-67
2023/09/17 03:24:18;;;;;;;;;;;;;;;18.36;69.30;101025.44;4171444;28;20373;-65
2023/09/17 03:26:22;;;;;;;;;;;;;;;18.36;69.49;101021.88;4172442;28;20332;-65
2023/09/17 03:28:24;;;;;;;;;;;;;;;18.37;69.62;101031.78;4187071;28;20392;-65
2023/09/17 03:30:26;;;;;;;;;;;;;;;18.34;69.63;101022.09;4170035;28;20071;-66
2023/09/17 03:32:28;;;;;;;;;;;;;;;18.33;69.36;101025.88;4172130;28;20028;-66
2023/09/17 03:34:32;;;;;;;;;;;;;;;18.34;69.23;101024.84;4172704;28;20016;-67
2023/09/17 03:36:36;;;;;;;;;;;;;;;18.34;69.36;101027.56;4171435;28;20015;-66
2023/09/17 03:38:40;;;;;;;;;;;;;;;18.33;69.15;101023.16;4172080;28;20446;-66
2023/09/17 03:40:42;;;;;;;;;;;;;;;18.31;69.21;101025.28;4187196;28;20014;-65
2023/09/17 03:42:44;;;;;;;;;;;;;;;18.31;69.26;101025.28;4171116;28;20023;-66
2023/09/17 03:44:47;;;;;;;;;;;;;;;18.31;69.12;101025.28;4171608;28;20019;-67
2023/09/17 03:46:49;;;;;;;;;;;;;;;18.31;69.06;101030.75;4177395;28;20023;-67
2023/09/17 03:48:52;;;;;;;;;;;;;;;18.30;69.02;101029.06;4170676;28;20008;-65
2023/09/17 03:50:55;;;;;;;;;;;;;;;18.30;69.04;101029.06;4186061;28;20046;-66
2023/09/17 03:52:57;;;;;;;;;;;;;;;18.28;69.00;101036.66;4185971;28;20016;-65
2023/09/17 03:55:01;;;;;;;;;;;;;;;18.28;68.83;101039.41;4170626;28;20459;-65
2023/09/17 03:57:04;;;;;;;;;;;;;;;18.27;68.66;101040.44;4177046;28;20021;-65
2023/09/17 03:59:07;;;;;;;;;;;;;;;18.27;68.55;101050.56;4169467;28;19925;-65
2023/09/17 04:01:09;;;;;;;;;;;;;;;18.25;68.46;101034.38;4169500;28;20023;-64
2023/09/17 04:03:14;;;;;;;;;;;;;;;18.24;68.51;101045.53;4176828;28;20064;-65
2023/09/17 04:05:17;;;;;;;;;;;;;;;18.19;68.54;101040.72;4185699;28;20019;-65
2023/09/17 04:07:18;;;;;;;;;;;;;;;18.16;68.87;101035.69;4170987;28;20042;-65
2023/09/17 04:09:20;;;;;;;;;;;;;;;18.14;68.97;101040.53;4171957;28;19925;-66
2023/09/17 04:11:23;;;;;;;;;;;;;;;18.12;69.10;101038.03;4185097;28;20019;-64
2023/09/17 04:13:27;;;;;;;;;;;;;;;18.09;69.22;101033.00;4171932;28;20039;-64
2023/09/17 04:15:31;;;;;;;;;;;;;;;18.06;69.16;101040.81;4185817;28;20027;-64
2023/09/17 04:17:32;;;;;;;;;;;;;;;18.08;69.23;101041.41;4169601;28;20031;-66
2023/09/17 04:19:35;;;;;;;;;;;;;;;18.06;69.31;101041.63;4170088;28;20024;-64
2023/09/17 04:21:38;;;;;;;;;;;;;;;18.06;69.32;101046.28;4170945;28;20020;-64
2023/09/17 04:23:39;;;;;;;;;;;;;;;18.07;68.83;101045.19;4171159;28;20045;-66
2023/09/17 04:25:41;;;;;;;;;;;;;;;18.08;68.76;101052.34;4170221;28;20020;-65
2023/09/17 04:27:46;;;;;;;;;;;;;;;18.08;69.04;101055.91;4177579;28;20364;-65
2023/09/17 04:29:51;;;;;;;;;;;;;;;18.08;68.67;101063.28;4186203;28;20011;-66
2023/09/17 04:31:53;;;;;;;;;;;;;;;18.05;68.75;101056.34;4171034;28;20019;-66
2023/09/17 04:33:55;;;;;;;;;;;;;;;18.06;68.64;101059.94;4171582;28;20012;-65
2023/09/17 04:35:58;;;;;;;;;;;;;;;18.05;68.64;101055.53;4176788;28;20019;-65
2023/09/17 04:38:02;;;;;;;;;;;;;;;18.03;68.48;101061.22;4177270;28;20050;-65
2023/09/17 04:40:08;;;;;;;;;;;;;;;17.99;68.64;101063.56;4175689;28;19933;-65
2023/09/17 04:42:12;;;;;;;;;;;;;;;17.97;68.45;101064.81;4169804;28;20015;-65
2023/09/17 04:44:16;;;;;;;;;;;;;;;17.94;68.55;101057.88;4185648;28;20074;-66
2023/09/17 04:46:18;;;;;;;;;;;;;;;17.92;68.67;101065.47;4170186;28;20032;-66
2023/09/17 04:48:25;;;;;;;;;;;;;;;17.90;68.86;101064.84;4169866;28;20016;-66
2023/09/17 04:52:12;;;;;;;;;;;;;;;17.87;68.95;101073.47;4220442;27;20325;-66
2023/09/17 04:54:18;;;;;;;;;;;;;;;17.87;68.79;101072.59;4200427;28;20047;-66
2023/09/17 04:56:21;;;;;;;;;;;;;;;17.87;68.83;101072.59;4217023;28;20018;-65
2023/09/17 04:58:23;;;;;;;;;;;;;;;17.84;68.87;101071.97;4232027;28;20030;-66
2023/09/17 05:00:25;;;;;;;;;;;;;;;17.81;69.12;101071.59;4216764;28;20657;-67
2023/09/17 05:02:27;;;;;;;;;;;;;;;17.77;69.20;101067.59;4215088;28;20026;-66
2023/09/17 05:04:30;;;;;;;;;;;;;;;17.75;69.50;101065.09;4216945;28;20024;-66
2023/09/17 05:06:32;;;;;;;;;;;;;;;17.75;69.32;101075.19;4199906;28;20024;-65
2023/09/17 05:08:36;;;;;;;;;;;;;;;17.76;69.33;101071.41;4217352;28;20028;-66
2023/09/17 05:10:38;;;;;;;;;;;;;;;17.77;69.59;101073.06;4232335;27;20038;-66
2023/09/17 05:12:41;;;;;;;;;;;;;;;17.77;69.58;101073.06;4216115;28;19968;-68
2023/09/17 05:14:43;;;;;;;;;;;;;;;17.75;69.80;101076.00;4215840;28;20019;-66
2023/09/17 05:16:45;;;;;;;;;;;;;;;17.75;69.65;101065.09;4231835;28;20010;-67
2023/09/17 05:18:47;;;;;;;;;;;;;;;17.73;69.80;101077.31;4216460;28;20034;-68
2023/09/17 05:20:53;;;;;;;;;;;;;;;17.72;69.90;101073.72;4215583;28;20031;-66
2023/09/17 05:22:56;;;;;;;;;;;;;;;17.74;69.83;101073.50;4215126;28;20055;-67
2023/09/17 05:25:00;;;;;;;;;;;;;;;17.74;69.85;101078.97;4216032;28;20023;-67
2023/09/17 05:27:02;;;;;;;;;;;;;;;17.75;70.32;101077.91;4216091;28;20015;-67
2023/09/17 05:29:04;;;;;;;;;;;;;;;17.76;70.36;101083.16;4199250;28;20437;-66
2023/09/17 05:31:07;;;;;;;;;;;;;;;17.78;70.33;101082.94;4217079;28;20038;-67
2023/09/17 05:33:09;;;;;;;;;;;;;;;17.79;70.39;101080.00;4214930;28;19931;-67
2023/09/17 05:35:13;;;;;;;;;;;;;;;17.80;70.58;101070.72;4215773;28;20355;-67
2023/09/17 05:37:16;;;;;;;;;;;;;;;17.83;70.70;101077.66;4198842;28;20466;-67
2023/09/17 05:39:18;;;;;;;;;;;;;;;17.86;70.61;101084.59;4213527;28;20374;-67
2023/09/17 05:41:22;;;;;;;;;;;;;;;17.88;70.66;101090.69;4213336;28;20035;-66
2023/09/17 05:43:26;;;;;;;;;;;;;;;17.88;71.24;101088.81;4200126;28;20011;-66
2023/09/17 05:45:27;;;;;;;;;;;;;;;17.91;71.31;101091.09;4199468;28;20023;-66
2023/09/17 05:47:30;;;;;;;;;;;;;;;17.94;71.22;101096.13;4209813;28;20038;-66
2023/09/17 05:49:34;;;;;;;;;;;;;;;17.96;71.42;101096.78;4212607;28;20015;-66
2023/09/17 05:51:37;;;;;;;;;;;;;;;17.99;71.28;101100.94;4212791;28;20571;-67
2023/09/17 05:53:38;;;;;;;;;;;;;;;18.03;71.22;101109.56;4214495;28;20031;-66
2023/09/17 05:55:40;;;;;;;;;;;;;;;18.06;71.60;101103.66;4216290;28;20031;-66
2023/09/17 05:57:44;;;;;;;;;;;;;;;18.07;71.58;101108.91;4213504;28;20018;-67
2023/09/17 05:59:48;;;;;;;;;;;;;;;18.11;71.68;101109.31;4197937;28;20024;-66
2023/09/17 06:01:51;;;;;;;;;;;;;;;18.12;71.89;101108.25;4212176;28;20014;-66
2023/09/17 06:03:53;;;;;;;;;;;;;;;18.14;72.17;101108.88;4205341;28;20031;-65
2023/09/17 06:05:55;;;;;;;;;;;;;;;18.15;72.30;101116.88;4187697;28;20470;-66
2023/09/17 06:07:58;;;;;;;;;;;;;;;18.15;72.53;101114.13;4188593;28;20016;-66
2023/09/17 06:10:00;;;;;;;;;;;;;;;18.17;72.73;101119.38;4203845;28;20023;-66
2023/09/17 06:12:03;;;;;;;;;;;;;;;18.17;72.92;101112.00;4203249;28;20015;-66
2023/09/17 06:14:07;;;;;;;;;;;;;;;18.21;72.90;101117.88;4204766;28;19940;-66
2023/09/17 06:16:09;;;;;;;;;;;;;;;18.24;72.68;101122.91;4220491;28;20441;-63
2023/09/17 06:18:11;;;;;;;;;;;;;;;18.26;73.12;101122.69;4203210;28;20015;-65
2023/09/17 06:20:14;;;;;;;;;;;;;;;18.30;72.88;101121.19;4178633;28;20045;-66
2023/09/17 06:22:17;;;;;;;;;;;;;;;18.31;73.05;101123.72;4219290;28;20023;-66
2023/09/17 06:24:19;;;;;;;;;;;;;;;18.33;73.36;101124.31;4204318;28;20015;-67
2023/09/17 06:26:21;;;;;;;;;;;;;;;18.35;73.77;101129.56;4204781;28;20448;-64
2023/09/17 06:28:23;;;;;;;;;;;;;;;18.36;73.46;101121.16;4187989;28;20028;-66
2023/09/17 06:30:26;;;;;;;;;;;;;;;18.39;73.23;101130.81;4201859;28;20015;-66
2023/09/17 06:32:28;;;;;;;;;;;;;;;18.43;73.00;101132.06;4203436;28;20438;-67
2023/09/17 06:34:30;;;;;;;;;;;;;;;18.47;72.89;101127.81;4188835;28;19951;-65
2023/09/17 06:36:32;;;;;;;;;;;;;;;18.50;73.23;101124.66;4187464;28;20020;-65
2023/09/17 06:38:34;;;;;;;;;;;;;;;18.54;72.94;101128.63;4202066;28;19929;-65
2023/09/17 06:40:36;;;;;;;;;;;;;;;18.57;72.78;101138.25;4183895;28;20024;-65
2023/09/17 06:42:39;;;;;;;;;;;;;;;18.61;72.91;101128.56;4201093;28;20007;-65
2023/09/17 06:44:40;;;;;;;;;;;;;;;18.65;72.47;101132.56;4203711;28;20576;-67
2023/09/17 06:46:43;;;;;;;;;;;;;;;18.69;72.80;101131.03;4204513;28;19932;-65
2023/09/17 06:48:45;;;;;;;;;;;;;;;18.72;73.07;101141.53;4203709;28;20051;-67
2023/09/17 06:50:47;;;;;;;;;;;;;;;18.74;73.21;101138.56;4201569;28;20022;-68
2023/09/17 06:52:49;;;;;;;;;;;;;;;18.78;72.92;101138.97;4200474;28;20537;-66
2023/09/17 06:54:51;;;;;;;;;;;;;;;18.80;73.23;101142.34;4196486;28;20337;-67
2023/09/17 06:56:53;;;;;;;;;;;;;;;18.82;72.77;101151.97;4204855;28;20612;-66
2023/09/17 06:59:01;;;;;;;;;;;;;;;18.85;73.35;101150.75;4204981;28;20338;-66
2023/09/17 07:01:03;;;;;;;;;;;;;;;18.86;73.50;101157.91;4202474;28;20027;-66
2023/09/17 07:03:08;;;;;;;;;;;;;;;18.86;73.40;101153.25;4203403;28;20031;-66
2023/09/17 07:05:10;;;;;;;;;;;;;;;18.87;73.03;101149.47;4204634;28;20028;-66
2023/09/17 07:07:11;;;;;;;;;;;;;;;18.89;73.42;101149.25;4205058;28;20031;-64
2023/09/17 07:09:13;;;;;;;;;;;;;;;18.93;73.14;101155.09;4205145;28;19924;-67
2023/09/17 07:11:17;;;;;;;;;;;;;;;18.95;72.94;101151.09;4203618;28;20007;-65
2023/09/17 07:13:19;;;;;;;;;;;;;;;18.99;72.89;101155.03;4204281;28;20011;-66
2023/09/17 07:15:22;;;;;;;;;;;;;;;19.01;72.47;101158.41;4203265;28;20024;-65
2023/09/17 07:17:24;;;;;;;;;;;;;;;19.05;71.91;101159.63;4204696;28;20015;-66
2023/09/17 07:19:28;;;;;;;;;;;;;;;19.11;72.21;101157.06;4203990;28;20019;-66
2023/09/17 07:21:29;;;;;;;;;;;;;;;19.15;72.44;101169.25;4204289;28;19935;-66
2023/09/17 07:23:33;;;;;;;;;;;;;;;19.18;71.69;101158.66;4203468;28;20343;-66
2023/09/17 07:25:35;;;;;;;;;;;;;;;19.22;72.09;101164.56;4204285;28;20011;-67
2023/09/17 07:27:37;;;;;;;;;;;;;;;19.25;71.88;101166.84;4204281;28;20015;-65
2023/09/17 07:29:39;;;;;;;;;;;;;;;19.29;71.63;101167.22;4204370;28;20027;-65
2023/09/17 07:31:41;;;;;;;;;;;;;;;19.32;71.28;101162.13;4203073;28;20019;-67
2023/09/17 07:33:44;;;;;;;;;;;;;;;19.35;71.10;101158.13;4204356;28;20454;-67
2023/09/17 07:35:47;;;;;;;;;;;;;;;19.39;71.51;101165.66;4204252;28;19971;-66
2023/09/17 07:37:49;;;;;;;;;;;;;;;19.43;71.02;101163.28;4203071;28;20023;-66
2023/09/17 07:39:53;;;;;;;;;;;;;;;19.46;70.39;101162.84;4203762;28;20019;-66
2023/09/17 07:41:55;;;;;;;;;;;;;;;19.50;70.86;101158.59;4204324;28;19924;-66
2023/09/17 07:43:58;;;;;;;;;;;;;;;19.54;70.19;101159.81;4204360;28;20033;-66
2023/09/17 07:46:00;;;;;;;;;;;;;;;19.57;69.48;101158.53;4204218;28;20019;-66
2023/09/17 07:48:03;;;;;;;;;;;;;;;19.61;69.50;101159.75;4204188;28;20856;-67
2023/09/17 07:50:05;;;;;;;;;;;;;;;19.65;69.03;101162.88;4203521;28;20450;-66
2023/09/17 07:52:09;;;;;;;;;;;;;;;19.70;68.60;101168.50;4203414;28;20007;-68
2023/09/17 07:54:10;;;;;;;;;;;;;;;19.72;68.92;101164.47;4203114;28;20014;-67
2023/09/17 07:56:13;;;;;;;;;;;;;;;19.76;68.76;101157.50;4202265;28;20366;-66
2023/09/17 07:58:15;;;;;;;;;;;;;;;19.80;68.46;101155.16;4203795;28;20023;-67
2023/09/17 08:00:17;;;;;;;;;;;;;;;19.84;68.30;101163.75;4203497;28;20019;-67
2023/09/17 08:02:19;;;;;;;;;;;;;;;19.88;68.46;101160.31;4203056;28;20031;-68
2023/09/17 08:04:21;;;;;;;;;;;;;;;19.92;68.06;101164.28;4203405;28;20020;-67
2023/09/17 08:06:25;;;;;;;;;;;;;;;19.95;68.42;101157.50;4203596;28;20023;-67
2023/09/17 08:08:27;;;;;;;;;;;;;;;20.01;68.00;101155.75;4204037;28;20015;-67
2023/09/17 08:10:29;;;;;;;;;;;;;;;20.05;68.13;101163.28;4200089;28;20347;-66
2023/09/17 08:12:31;;;;;;;;;;;;;;;20.10;67.66;101165.34;4201948;28;20027;-67
2023/09/17 08:14:34;;;;;;;;;;;;;;;20.14;67.43;101167.38;4203590;28;20027;-66
2023/09/17 08:16:36;;;;;;;;;;;;;;;20.20;67.59;101170.28;4203244;28;19928;-66
2023/09/17 08:18:38;;;;;;;;;;;;;;;20.23;67.24;101164.31;4203818;28;20027;-65
2023/09/17 08:20:40;;;;;;;;;;;;;;;20.28;67.22;101167.19;4202616;28;20016;-67
2023/09/17 08:22:42;;;;;;;;;;;;;;;20.33;66.94;101157.22;4203421;28;20027;-67
2023/09/17 08:24:47;;;;;;;;;;;;;;;20.39;67.01;101168.31;4203091;28;20026;-65
2023/09/17 08:26:49;;;;;;;;;;;;;;;20.44;67.16;101158.34;4203742;28;20362;-66
2023/09/17 08:28:51;;;;;;;;;;;;;;;20.49;67.00;101154.91;4203325;28;20394;-65
2023/09/17 08:30:53;;;;;;;;;;;;;;;20.56;66.76;101154.78;4202680;28;20019;-66
2023/09/17 08:32:57;;;;;;;;;;;;;;;20.61;66.62;101161.28;4203806;28;20023;-66
2023/09/17 08:34:59;;;;;;;;;;;;;;;20.68;66.22;101159.28;4203128;28;20027;-65
2023/09/17 08:37:01;;;;;;;;;;;;;;;20.76;66.33;101155.34;4203852;28;20497;-65
2023/09/17 08:39:06;;;;;;;;;;;;;;;20.84;65.99;101168.75;4202757;28;20011;-66
2023/09/17 08:41:09;;;;;;;;;;;;;;;20.93;65.67;101163.75;4203178;28;20346;-67
2023/09/17 08:43:12;;;;;;;;;;;;;;;21.02;65.58;101158.78;4203737;28;20010;-66
2023/09/17 08:45:14;;;;;;;;;;;;;;;21.13;65.05;101154.34;4201326;28;20015;-67
2023/09/17 08:47:18;;;;;;;;;;;;;;;21.23;64.89;101155.44;4202127;28;20039;-67
2023/09/17 08:49:20;;;;;;;;;;;;;;;21.35;64.48;101151.88;4201676;28;20028;-66
2023/09/17 08:51:24;;;;;;;;;;;;;;;21.49;64.08;101153.31;4200987;28;20016;-67
2023/09/17 08:53:30;;;;;;;;;;;;;;;21.62;64.01;101157.72;4202593;28;20023;-67
2023/09/17 08:55:32;;;;;;;;;;;;;;;21.75;63.58;101162.94;4202811;28;20003;-66
2023/09/17 08:57:36;;;;;;;;;;;;;;;21.87;63.29;101156.63;4204385;28;19973;-66
2023/09/17 08:59:39;;;;;;;;;;;;;;;21.97;62.83;101148.56;4202614;28;20010;-67
2023/09/17 09:01:40;;;;;;;;;;;;;;;22.07;62.73;101147.94;4202653;28;20024;-67
2023/09/17 09:03:42;;;;;;;;;;;;;;;22.16;62.33;101145.66;4200592;28;19956;-65
2023/09/17 09:05:44;;;;;;;;;;;;;;;22.19;61.90;101140.47;4202538;28;20018;-66
2023/09/17 09:07:47;;;;;;;;;;;;;;;22.26;61.78;101152.19;4202782;28;20016;-66
2023/09/17 09:09:49;;;;;;;;;;;;;;;22.32;61.85;101144.91;4203140;28;20403;-68
2023/09/17 09:11:51;;;;;;;;;;;;;;;22.37;61.80;101141.41;4201904;28;20024;-67
2023/09/17 09:13:55;;;;;;;;;;;;;;;22.41;61.40;101139.84;4203335;28;20030;-67
2023/09/17 09:15:57;;;;;;;;;;;;;;;22.43;61.43;101137.66;4199242;28;20023;-67
2023/09/17 09:17:59;;;;;;;;;;;;;;;22.44;61.60;101148.41;4202916;28;20465;-67
2023/09/17 09:20:01;;;;;;;;;;;;;;;22.46;61.23;101146.28;4199458;28;20015;-67
2023/09/17 09:22:05;;;;;;;;;;;;;;;22.47;61.20;101144.34;4202613;28;20027;-66
2023/09/17 09:24:08;;;;;;;;;;;;;;;22.48;61.32;101146.84;4202171;28;20450;-67
2023/09/17 09:26:10;;;;;;;;;;;;;;;22.50;61.16;101149.38;4203605;28;20031;-65
2023/09/17 09:28:12;;;;;;;;;;;;;;;22.50;61.28;101150.19;4202319;28;20083;-66
2023/09/17 09:30:16;;;;;;;;;;;;;;;22.53;61.07;101150.78;4201928;28;20034;-65
2023/09/17 09:32:18;;;;;;;;;;;;;;;22.53;61.20;101146.13;4202410;28;20371;-67
2023/09/17 09:34:20;;;;;;;;;;;;;;;22.54;61.26;101134.03;4202927;28;20445;-66
2023/09/17 09:36:22;;;;;;;;;;;;;;;22.54;61.29;101141.44;4202555;28;20023;-67
2023/09/17 09:38:24;;;;;;;;;;;;;;;22.55;61.08;101143.94;4205584;28;19928;-67
2023/09/17 09:40:26;;;;;;;;;;;;;;;22.56;61.20;101142.03;4205993;28;20023;-68
2023/09/17 09:42:28;;;;;;;;;;;;;;;22.56;61.50;101140.13;4205615;28;20023;-67
2023/09/17 09:44:30;;;;;;;;;;;;;;;22.56;61.40;101142.03;4203459;28;20015;-67
2023/09/17 09:46:35;;;;;;;;;;;;;;;22.57;61.54;101140.94;4204528;28;20015;-67
2023/09/17 09:48:37;;;;;;;;;;;;;;;22.57;61.38;101135.44;4205425;28;20027;-67
2023/09/17 09:50:39;;;;;;;;;;;;;;;22.57;61.56;101135.44;4205126;28;20007;-66
2023/09/17 09:52:41;;;;;;;;;;;;;;;22.56;61.34;101134.63;4205985;28;20023;-65
2023/09/17 09:54:44;;;;;;;;;;;;;;;22.57;61.33;101135.44;4205574;28;20019;-65
2023/09/17 09:56:48;;;;;;;;;;;;;;;22.56;61.52;101137.38;4204400;28;20015;-67
2023/09/17 09:58:51;;;;;;;;;;;;;;;22.58;61.59;101134.38;4205669;28;20341;-67
2023/09/17 10:00:52;;;;;;;;;;;;;;;22.58;61.62;101134.38;4205583;28;20015;-66
2023/09/17 10:02:56;;;;;;;;;;;;;;;22.57;61.72;101136.28;4203838;28;20014;-67
2023/09/17 10:04:59;;;;;;;;;;;;;;;22.58;61.74;101131.59;4205310;28;20047;-67
2023/09/17 10:07:02;;;;;;;;;;;;;;;22.58;61.60;101137.13;4205127;28;20016;-67
2023/09/17 10:09:04;;;;;;;;;;;;;;;22.58;61.61;101137.13;4205059;28;20050;-66
2023/09/17 10:11:06;;;;;;;;;;;;;;;22.58;61.69;101137.94;4205631;28;20027;-66
2023/09/17 10:13:08;;;;;;;;;;;;;;;22.58;61.92;101135.19;4204783;28;20027;-67
2023/09/17 10:15:10;;;;;;;;;;;;;;;22.58;61.86;101131.59;4205054;28;20026;-68
2023/09/17 10:17:13;;;;;;;;;;;;;;;22.59;61.70;101136.88;4204871;28;20031;-66
2023/09/17 10:19:20;;;;;;;;;;;;;;;22.59;61.88;101136.88;4204916;28;20011;-67
2023/09/17 10:21:22;;;;;;;;;;;;;;;22.60;61.95;101133.03;4204355;28;20036;-67
2023/09/17 10:23:24;;;;;;;;;;;;;;;22.61;61.85;101129.19;4205568;28;20018;-66
2023/09/17 10:25:26;;;;;;;;;;;;;;;22.62;62.08;101130.88;4205804;28;20019;-67
2023/09/17 10:27:28;;;;;;;;;;;;;;;22.64;62.14;101120.44;4205895;28;20034;-67
2023/09/17 10:29:30;;;;;;;;;;;;;;;22.66;61.69;101120.19;4205252;28;20625;-67
2023/09/17 10:31:32;;;;;;;;;;;;;;;22.69;61.86;101127.94;4204824;28;20490;-66